Latest Weather Observations for Glen Innes Airport

IDN60801

Issued at 10:32 am EST Sunday 16 June 2019 (issued every 10 minutes, with the page automatically refreshed every 10 minutes)

About weather observations | Map of weather stations | Latest weather observations for NSW | Other Formats
Station Details ID: 056243 Name: GLEN INNES AIRPORT AWS Lat: -29.68 Lon: 151.69 Height: 1044.3 m
Data from the previous 72 hours. | See also: Recent months at Glen Innes Airport
Date/Time
EST
Temp
°C
App
Temp
°C
Dew
Point
°C
Rel
Hum
%
Delta-T
°C
Wind Press
QNH
hPa
Press
MSL
hPa
Rain since
9am
mm
Dir  Spd
km/h
Gust
km/h
Spd
kts
Gust
kts
16/10:30am 13.7 9.2 7.0 64 3.4 NW 20 32 11 17 1021.4 1021.5 0.0
16/10:12am 13.5 8.9 6.6 63 3.5 NW 20 26 11 14 1021.6 1021.7 0.0
16/10:02am 12.6 8.1 7.1 69 2.8 NW 20 26 11 14 1021.6 1021.7 0.0
16/10:00am 12.8 8.5 7.9 72 2.5 NW 20 24 11 13 1021.6 1021.7 0.0
16/09:35am 11.6 9.4 10.7 94 0.5 NW 13 17 7 9 1021.6 1021.7 0.0
16/09:30am 11.6 9.8 10.8 95 0.4 NNW 11 15 6 8 1021.6 1021.7 0.0
16/09:25am 11.4 9.9 10.6 95 0.4 N 9 13 5 7 1021.5 1021.6 0.0
16/09:00am 10.5 10.5 9.7 95 0.4 CALM 0 0 0 0 1021.5 1021.6 0.0
16/08:30am 10.1 10.0 9.3 95 0.4 CALM 0 0 0 0 1021.5 1021.6 0.0
16/08:00am 9.2 8.8 8.4 95 0.4 CALM 0 0 0 0 1021.4 1021.5 0.0
16/07:47am 8.7 8.2 7.9 95 0.4 CALM 0 0 0 0 1021.2 1021.2 0.0
16/07:40am 8.5 7.6 7.7 95 0.4 E 2 6 1 3 1021.2 1021.2 0.0
16/07:30am 8.1 6.3 7.3 95 0.4 E 6 7 3 4 1021.2 1021.2 0.0
16/07:00am 7.1 4.9 6.4 95 0.3 E 7 9 4 5 1020.7 1020.8 0.0
16/06:30am 8.0 5.6 7.2 95 0.4 SSE 9 11 5 6 1020.6 1020.7 0.0
16/06:00am 7.4 4.9 6.7 95 0.3 SSE 9 11 5 6 1020.2 1020.2 0.0
16/05:30am 7.3 6.5 6.6 95 0.3 CALM 0 0 0 0 1020.0 1020.1 0.0
16/05:00am 7.4 6.6 6.7 95 0.3 CALM 0 0 0 0 1019.9 1020.0 0.0
16/04:30am 6.6 4.5 5.9 95 0.3 SE 6 9 3 5 1019.7 1019.8 0.0
16/04:00am 5.9 3.5 5.2 95 0.3 SE 7 9 4 5 1019.7 1019.8 0.0
16/03:30am 6.1 3.7 5.4 95 0.3 SSE 7 9 4 5 1019.8 1019.9 0.0
16/03:00am 5.8 3.0 5.1 95 0.3 ESE 9 11 5 6 1020.0 1020.1 0.0
16/02:33am 6.1 3.4 5.4 95 0.3 SE 9 13 5 7 1020.4 1020.4 0.0
16/02:30am 5.5 2.6 4.8 95 0.3 SE 9 13 5 7 1020.4 1020.4 0.0
16/02:00am 3.9 1.7 3.2 95 0.3 SE 4 7 2 4 1020.5 1020.6 0.0
16/01:30am 2.9 -0.4 2.2 95 0.3 SE 9 11 5 6 1020.3 1020.3 0.0
16/01:00am 4.1 1.0 3.4 95 0.3 ESE 9 11 5 6 1020.4 1020.4 0.0
16/12:39am 3.5 0.8 2.8 95 0.3 ESE 6 7 3 4 1020.6 1020.7 0.0
16/12:34am 3.6 0.9 2.9 95 0.3 ESE 6 9 3 5 1020.6 1020.7 0.0
16/12:30am 3.5 0.6 2.8 95 0.3 ESE 7 11 4 6 1020.6 1020.7 0.0
16/12:01am 3.5 1.2 2.8 95 0.3 SSE 4 6 2 3 1020.9 1021.0 0.0
16/12:00am 3.5 1.2 2.8 95 0.3 SSE 4 6 2 3 1020.9 1021.0 0.0
 
Date/Time
EST
Temp
°C
App
Temp
°C
Dew
Point
°C
Rel
Hum
%
Delta-T
°C
Wind Press
QNH
hPa
Press
MSL
hPa
Rain since
9am
mm
Dir  Spd
km/h
Gust
km/h
Spd
kts
Gust
kts
15/11:42pm 2.3 -0.8 1.4 94 0.4 SSE 7 9 4 5 1020.8 1020.9 0.0
15/11:30pm 3.0 -0.4 2.1 94 0.4 SSE 9 11 5 6 1020.8 1020.9 0.0
15/11:00pm 3.3 0.0 2.3 93 0.4 SSE 9 11 5 6 1021.0 1021.1 0.0
15/10:30pm 4.7 2.0 3.7 93 0.4 SE 7 9 4 5 1021.3 1021.4 0.0
15/10:05pm 5.0 2.9 3.8 92 0.5 SSE 4 7 2 4 1021.5 1021.6 0.0
15/10:00pm 4.9 2.4 3.9 93 0.4 SSE 6 9 3 5 1021.4 1021.5 0.0
15/09:30pm 5.2 2.7 4.0 92 0.5 SE 6 6 3 3 1021.4 1021.5 0.0
15/09:00pm 7.0 4.9 5.9 93 0.5 WSW 6 7 3 4 1021.4 1021.5 0.0
15/08:30pm 6.8 5.0 5.6 92 0.6 WSW 4 7 2 4 1021.3 1021.4 0.0
15/08:00pm 7.2 6.3 6.0 92 0.6 CALM 0 0 0 0 1021.3 1021.4 0.0
15/07:30pm 6.2 5.0 4.5 89 0.8 CALM 0 0 0 0 1021.0 1021.1 0.0
15/07:00pm 7.5 6.5 5.6 88 0.9 CALM 0 0 0 0 1020.8 1020.9 0.0
15/06:30pm 8.1 7.1 5.7 85 1.2 CALM 0 0 0 0 1020.6 1020.7 0.0
15/06:00pm 9.0 8.2 6.6 85 1.2 CALM 0 0 0 0 1020.5 1020.6 0.0
15/05:30pm 11.0 9.3 7.5 79 1.8 WSW 6 7 3 4 1020.3 1020.3 0.0
15/05:00pm 12.1 9.9 7.8 75 2.2 WSW 9 13 5 7 1019.9 1020.0 0.0
15/04:30pm 13.8 10.6 8.6 71 2.8 WSW 15 20 8 11 1019.7 1019.8 0.0
15/04:00pm 14.5 10.8 9.3 71 2.8 WSW 19 24 10 13 1019.6 1019.6 0.0
15/03:30pm 16.3 11.5 8.8 61 4.1 W 24 30 13 16 1019.4 1019.4 0.0
15/03:00pm 16.7 12.2 8.7 59 4.3 NW 22 30 12 16 1018.9 1019.0 0.0
15/02:30pm 17.7 13.0 9.3 58 4.6 NW 24 33 13 18 1019.1 1019.1 0.0
15/02:00pm 17.3 13.3 9.2 59 4.4 WNW 20 30 11 16 1019.2 1019.2 0.0
15/01:30pm 16.7 12.4 9.4 62 4.0 NW 22 30 12 16 1019.4 1019.4 0.0
15/01:00pm 15.2 11.4 9.1 67 3.3 NW 19 26 10 14 1019.8 1019.9 0.0
15/12:30pm 14.7 10.9 9.1 69 3.0 WNW 19 26 10 14 1020.0 1020.1 0.0
15/12:00pm 15.4 12.2 11.4 77 2.3 NW 19 24 10 13 1020.5 1020.6 0.0
15/11:43am 14.7 11.5 9.9 73 2.6 NW 17 24 9 13 1020.7 1020.8 0.0
15/11:30am 14.2 11.7 9.8 75 2.4 NW 13 19 7 10 1020.9 1021.0 0.0
15/11:00am 13.6 11.3 10.4 81 1.8 NW 13 19 7 10 1021.4 1021.5 0.0
15/10:48am 13.7 12.3 11.0 84 1.5 NW 9 13 5 7 1021.4 1021.5 0.0
15/10:30am 12.7 12.6 10.9 89 1.0 N 2 7 1 4 1021.6 1021.7 0.0
15/10:03am 11.8 11.8 11.0 95 0.4 ESE 2 7 1 4 1021.9 1022.0 0.0
15/10:00am 11.4 10.9 10.6 95 0.4 ESE 4 7 2 4 1021.9 1022.0 0.0
15/09:37am 10.1 8.6 9.3 95 0.4 E 7 11 4 6 1022.0 1022.1 0.0
15/09:30am 10.0 8.1 9.2 95 0.4 E 9 11 5 6 1022.0 1022.1 0.0
15/09:00am 8.8 6.3 8.0 95 0.4 ESE 11 11 6 6 1022.0 1022.1 1.6
15/08:30am 8.2 5.5 7.4 95 0.4 ESE 11 13 6 7 1021.7 1021.8 1.6
15/08:00am 7.6 5.6 6.9 95 0.3 SE 7 9 4 5 1021.5 1021.6 1.6
15/07:42am 6.8 4.6 6.1 95 0.3 SE 7 9 4 5 1021.4 1021.5 1.6
15/07:32am 6.4 4.1 5.7 95 0.3 SE 7 9 4 5 1021.3 1021.4 1.6
15/07:30am 6.5 4.2 5.8 95 0.3 SE 7 9 4 5 1021.3 1021.4 1.6
15/07:00am 6.3 3.6 5.6 95 0.3 SE 9 11 5 6 1020.9 1021.0 1.6
15/06:30am 6.6 3.6 5.9 95 0.3 SE 11 13 6 7 1020.6 1020.7 1.6
15/06:00am 6.5 3.8 5.8 95 0.3 SE 9 11 5 6 1020.4 1020.4 1.4
15/05:30am 5.8 3.0 5.1 95 0.3 ESE 9 13 5 7 1020.0 1020.1 1.4
15/05:00am 5.6 2.7 4.9 95 0.3 SE 9 13 5 7 1019.8 1019.9 1.4
15/04:30am 5.4 2.1 4.7 95 0.3 SE 11 17 6 9 1019.7 1019.8 1.4
15/04:11am 5.1 2.2 4.4 95 0.3 ESE 9 11 5 6 1019.7 1019.8 1.4
15/04:02am 4.5 1.4 3.8 95 0.3 ESE 9 11 5 6 1019.6 1019.6 1.4
15/04:00am 4.4 1.3 3.7 95 0.3 ESE 9 11 5 6 1019.6 1019.6 1.4
15/03:30am 4.9 1.9 4.2 95 0.3 SE 9 11 5 6 1019.7 1019.8 1.4
15/03:06am 5.1 2.5 4.4 95 0.3 ESE 7 9 4 5 1019.8 1019.9 1.4
15/03:00am 5.1 2.2 4.4 95 0.3 ESE 9 11 5 6 1019.8 1019.9 1.4
15/02:30am 6.7 4.1 6.0 95 0.3 SSE 9 11 5 6 1020.0 1020.1 1.4
15/02:00am 5.6 2.7 4.9 95 0.3 E 9 11 5 6 1020.3 1020.3 1.4
15/01:49am 5.0 2.0 4.3 95 0.3 ESE 9 11 5 6 1020.3 1020.3 1.4
15/01:30am 4.1 0.9 3.2 94 0.4 SSE 9 11 5 6 1020.4 1020.4 1.4
15/01:00am 4.8 2.1 3.9 94 0.4 ESE 7 9 4 5 1020.2 1020.2 1.4
15/12:45am 6.1 3.3 5.2 94 0.4 E 9 11 5 6 1020.3 1020.3 1.4
15/12:30am 6.7 4.0 5.8 94 0.4 ENE 9 11 5 6 1020.6 1020.7 1.4
15/12:00am 7.9 5.5 7.1 95 0.4 SSE 9 11 5 6 1020.8 1020.9 1.4
 
Date/Time
EST
Temp
°C
App
Temp
°C
Dew
Point
°C
Rel
Hum
%
Delta-T
°C
Wind Press
QNH
hPa
Press
MSL
hPa
Rain since
9am
mm
Dir  Spd
km/h
Gust
km/h
Spd
kts
Gust
kts
14/11:30pm 7.0 4.4 6.3 95 0.3 SSE 9 11 5 6 1020.9 1021.0 1.4
14/11:00pm 6.1 3.3 5.2 94 0.4 ESE 9 9 5 5 1021.4 1021.5 1.4
14/10:35pm 5.7 3.4 4.8 94 0.4 SE 6 7 3 4 1021.4 1021.5 1.4
14/10:30pm 5.8 3.5 4.9 94 0.4 SE 6 7 3 4 1021.5 1021.6 1.4
14/10:00pm 5.7 3.2 4.7 93 0.5 E 7 7 4 4 1021.5 1021.6 1.4
14/09:35pm 6.7 4.4 5.7 93 0.5 E 7 9 4 5 1021.5 1021.6 1.4
14/09:30pm 6.7 4.4 5.8 94 0.4 E 7 9 4 5 1021.5 1021.6 1.4
14/09:00pm 7.3 4.8 6.4 94 0.4 SSE 9 9 5 5 1021.7 1021.8 1.2
14/08:30pm 8.0 6.0 7.1 94 0.4 SE 7 7 4 4 1021.6 1021.7 1.2
14/08:00pm 8.0 5.9 6.8 92 0.6 ESE 7 9 4 5 1021.5 1021.6 1.2
14/07:30pm 9.1 8.6 7.9 92 0.6 CALM 0 0 0 0 1021.5 1021.6 1.2
14/07:09pm 10.0 9.7 8.6 91 0.7 CALM 0 0 0 0 1021.3 1021.4 1.2
14/07:00pm 10.3 10.1 9.1 92 0.6 CALM 0 0 0 0 1021.2 1021.2 1.2
14/06:30pm 10.7 9.3 9.5 92 0.6 W 7 11 4 6 1021.0 1021.1 1.2
14/06:00pm 10.4 8.8 8.7 89 0.9 ENE 7 9 4 5 1020.6 1020.7 0.6
14/05:30pm 11.0 10.0 8.9 87 1.1 ENE 4 7 2 4 1020.3 1020.3 0.6
14/05:00pm 11.6 10.2 9.0 84 1.4 SW 6 7 3 4 1020.0 1020.1 0.6
14/04:30pm 12.5 10.4 9.9 84 1.4 SW 11 15 6 8 1020.0 1020.1 0.6
14/04:00pm 12.7 10.7 10.2 85 1.4 SW 11 15 6 8 1020.0 1020.1 0.6
14/03:30pm 13.1 10.4 10.5 84 1.4 WNW 15 20 8 11 1019.8 1019.9 0.4
14/03:00pm 15.1 11.7 9.0 67 3.3 NW 17 20 9 11 1019.5 1019.5 0.0
14/02:30pm 16.2 13.6 7.7 57 4.5 W 11 15 6 8 1019.2 1019.2 0.0
14/02:00pm 16.7 14.2 8.1 57 4.6 W 11 17 6 9 1019.7 1019.8 0.0
14/01:30pm 16.2 13.2 7.9 58 4.4 WSW 13 17 7 9 1019.8 1019.9 0.0
14/01:00pm 16.9 13.9 7.8 55 4.8 W 13 19 7 10 1019.9 1020.0 0.0
14/12:30pm 15.9 12.4 8.6 62 3.9 WSW 17 24 9 13 1020.5 1020.6 0.0
14/12:00pm 16.2 14.3 8.9 62 3.9 NW 9 15 5 8 1020.7 1020.8 0.0
14/11:30am 16.6 14.6 8.8 60 4.2 NNW 9 13 5 7 1021.0 1021.1 0.0
14/11:00am 15.2 13.3 8.9 66 3.4 NNW 9 15 5 8 1021.6 1021.7 0.0
14/10:30am 15.0 13.0 8.7 66 3.4 NW 9 19 5 10 1021.9 1022.0 0.0
14/10:00am 14.8 12.3 8.3 65 3.4 NW 11 13 6 7 1021.9 1022.0 0.0
14/09:30am 13.9 13.5 9.9 77 2.2 ESE 2 6 1 3 1021.8 1021.9 0.0
14/09:00am 12.2 10.4 9.4 83 1.5 ESE 9 11 5 6 1021.6 1021.7 0.0
14/08:30am 9.4 7.8 8.6 95 0.4 E 7 9 4 5 1021.6 1021.7 0.0
14/08:00am 7.4 5.3 6.7 95 0.3 E 7 9 4 5 1021.5 1021.6 0.0
14/07:30am 4.7 2.1 4.1 96 0.3 SE 7 11 4 6 1021.2 1021.2 0.0
14/07:20am 3.3 0.4 2.6 95 0.3 SE 7 11 4 6 1021.3 1021.4 0.0
14/07:00am 2.7 -0.7 2.0 95 0.3 SE 9 11 5 6 1020.8 1020.9 0.0
14/06:30am 2.9 -0.1 2.2 95 0.3 ESE 7 9 4 5 1020.7 1020.8 0.0
14/06:00am 3.6 0.4 2.9 95 0.3 ESE 9 9 5 5 1020.4 1020.4 0.0
14/05:46am 3.7 0.5 3.0 95 0.3 E 9 9 5 5 1020.4 1020.4 0.0
14/05:30am 4.1 1.3 3.4 95 0.3 ESE 7 9 4 5 1020.3 1020.3 0.0
14/05:00am 4.5 1.8 3.8 95 0.3 E 7 7 4 4 1020.0 1020.1 0.0
14/04:52am 3.7 0.9 3.0 95 0.3 E 7 11 4 6 1020.0 1020.1 0.0
14/04:30am 3.0 0.0 2.3 95 0.3 SE 7 9 4 5 1019.9 1020.0 0.0
14/04:00am 2.7 -0.1 2.0 95 0.3 SE 6 9 3 5 1019.9 1020.0 0.0
14/03:30am 4.2 1.5 3.5 95 0.3 SE 7 11 4 6 1019.9 1020.0 0.0
14/03:09am 3.2 -0.5 2.5 95 0.3 SSE 11 13 6 7 1019.9 1020.0 0.0
14/03:00am 3.1 0.2 2.4 95 0.3 SSE 7 9 4 5 1020.0 1020.1 0.0
14/02:53am 3.2 0.3 2.5 95 0.3 SSE 7 9 4 5 1020.0 1020.1 0.0
14/02:33am 3.6 0.4 2.9 95 0.3 SE 9 11 5 6 1020.2 1020.2 0.0
14/02:30am 2.9 -0.4 2.2 95 0.3 ESE 9 11 5 6 1020.2 1020.2 0.0
14/02:13am 3.2 0.5 2.5 95 0.3 SE 6 7 3 4 1020.2 1020.2 0.0
14/02:00am 3.0 -0.4 2.1 94 0.4 SSE 9 11 5 6 1020.4 1020.4 0.0
14/01:30am 3.7 1.0 2.8 94 0.4 SE 6 7 3 4 1020.6 1020.7 0.0
14/01:00am 4.8 2.1 3.9 94 0.4 ESE 7 9 4 5 1020.6 1020.7 0.0
14/12:48am 5.4 3.1 4.7 95 0.3 SE 6 7 3 4 1020.7 1020.8 0.0
14/12:30am 5.0 2.4 4.1 94 0.4 SSE 7 7 4 4 1021.0 1021.1 0.0
14/12:21am 5.0 2.6 4.1 94 0.4 S 6 7 3 4 1021.0 1021.1 0.0
14/12:00am 4.7 3.0 4.0 95 0.3 SW 2 7 1 4 1021.3 1021.4 0.0
 
Date/Time
EST
Temp
°C
App
Temp
°C
Dew
Point
°C
Rel
Hum
%
Delta-T
°C
Wind Press
QNH
hPa
Press
MSL
hPa
Rain since
9am
mm
Dir  Spd
km/h
Gust
km/h
Spd
kts
Gust
kts
13/11:30pm 3.7 2.1 2.7 93 0.4 CALM 0 0 0 0 1021.4 1021.5 0.0
13/11:00pm 4.6 3.2 3.6 93 0.4 CALM 0 0 0 0 1021.6 1021.7 0.0
13/10:54pm 4.8 3.4 3.8 93 0.4 CALM 0 0 0 0 1021.5 1021.6 0.0
13/10:30pm 5.5 4.3 4.6 94 0.4 CALM 0 0 0 0 1021.5 1021.6 0.0
13/10:00pm 4.8 3.4 3.5 91 0.6 CALM 0 0 0 0 1021.5 1021.6 0.0
13/09:30pm 6.4 5.3 4.9 90 0.7 CALM 0 0 0 0 1021.7 1021.8 0.0
13/09:00pm 7.2 6.2 5.5 89 0.8 CALM 0 0 0 0 1021.4 1021.5 0.0
13/08:30pm 9.7 7.9 7.3 85 1.2 WSW 6 6 3 3 1021.6 1021.7 0.0
13/08:00pm 9.6 7.6 6.9 83 1.3 WSW 7 11 4 6 1021.7 1021.8 0.0
13/07:30pm 9.1 6.2 6.4 83 1.3 WSW 11 13 6 7 1021.7 1021.8 0.0
13/07:00pm 9.6 7.1 6.7 82 1.4 W 9 9 5 5 1021.4 1021.5 0.0
13/06:30pm 10.5 8.6 7.6 82 1.5 WNW 7 9 4 5 1020.9 1021.0 0.0
13/06:00pm 10.3 7.9 6.8 79 1.7 WNW 9 11 5 6 1020.7 1020.8 0.0
13/05:30pm 11.5 8.3 7.0 74 2.3 WNW 13 15 7 8 1020.6 1020.7 0.0
13/05:00pm 14.0 10.3 8.0 67 3.1 WNW 17 20 9 11 1020.2 1020.2 0.0
13/04:30pm 15.3 11.2 8.5 64 3.6 WNW 20 24 11 13 1020.3 1020.3 0.0
13/04:00pm 15.4 11.4 8.9 65 3.5 WNW 20 28 11 15 1020.4 1020.4 0.0
13/03:30pm 16.1 10.4 8.3 60 4.2 WNW 28 39 15 21 1020.2 1020.2 0.0
13/03:00pm 15.3 9.6 8.3 63 3.7 WNW 28 33 15 18 1020.0 1020.1 0.0
13/02:30pm 15.5 9.7 8.0 61 4.0 WNW 28 35 15 19 1019.9 1020.0 0.0
13/02:00pm 16.9 10.9 8.6 58 4.5 NW 30 39 16 21 1019.7 1019.8 0.0
13/01:30pm 15.2 9.6 8.9 66 3.4 WNW 28 37 15 20 1020.0 1020.1 0.0
13/01:00pm 15.3 10.3 9.7 69 3.1 W 26 33 14 18 1020.4 1020.4 0.0
13/12:30pm 15.4 10.5 10.0 70 3.0 WNW 26 37 14 20 1021.3 1021.4 0.0
13/12:00pm 13.7 8.4 9.7 77 2.2 WNW 28 32 15 17 1021.8 1021.9 0.0
13/11:30am 13.2 8.3 9.8 80 1.8 WNW 26 33 14 18 1022.3 1022.4 0.0
13/11:00am 13.0 8.5 10.2 83 1.5 NW 24 32 13 17 1023.0 1023.2 0.0

Other formats

Comma delimited format used in spreadsheet applications
http://www.bom.gov.au/fwo/IDN60801/IDN60801.94588.axf

JavaScript Object Notation format (JSON) in row-major order
http://www.bom.gov.au/fwo/IDN60801/IDN60801.94588.json

Data quality

Most of these data are generated automatically and are frequently updated. Quality checks on data are not normally performed. It is possible for incorrect values to appear. Refer to information at About Latest Weather Observations and please check the disclaimer before using these data.